sensor_id;sensor_type;location;lat;lon;timestamp;pressure;altitude;pressure_sealevel;temperature;humidity
81181;BME280;70650;51.408;7.132;2024-01-15T00:00:40;98989.97;;;-0.10;98.52
81181;BME280;70650;51.408;7.132;2024-01-15T00:03:06;98978.75;;;-0.12;98.38
81181;BME280;70650;51.408;7.132;2024-01-15T00:05:31;98976.13;;;-0.11;98.25
81181;BME280;70650;51.408;7.132;2024-01-15T00:07:56;98993.41;;;-0.10;98.11
81181;BME280;70650;51.408;7.132;2024-01-15T00:10:23;98987.25;;;-0.07;98.35
81181;BME280;70650;51.408;7.132;2024-01-15T00:12:48;98982.25;;;-0.13;98.64
81181;BME280;70650;51.408;7.132;2024-01-15T00:15:13;98976.25;;;-0.15;98.54
81181;BME280;70650;51.408;7.132;2024-01-15T00:17:39;98971.91;;;-0.15;98.45
81181;BME280;70650;51.408;7.132;2024-01-15T00:20:05;98969.81;;;-0.04;98.12
81181;BME280;70650;51.408;7.132;2024-01-15T00:22:30;98967.41;;;-0.10;97.95
81181;BME280;70650;51.408;7.132;2024-01-15T00:24:56;98967.47;;;-0.11;98.20
81181;BME280;70650;51.408;7.132;2024-01-15T00:27:21;98962.16;;;-0.08;98.06
81181;BME280;70650;51.408;7.132;2024-01-15T00:29:47;98963.00;;;-0.08;97.92
81181;BME280;70650;51.408;7.132;2024-01-15T00:32:12;98955.22;;;-0.08;98.13
81181;BME280;70650;51.408;7.132;2024-01-15T00:34:37;98963.84;;;-0.07;98.16
81181;BME280;70650;51.408;7.132;2024-01-15T00:37:02;98945.78;;;-0.10;97.99
81181;BME280;70650;51.408;7.132;2024-01-15T00:39:28;98955.16;;;-0.06;98.22
81181;BME280;70650;51.408;7.132;2024-01-15T00:41:54;98942.34;;;-0.11;98.22
81181;BME280;70650;51.408;7.132;2024-01-15T00:44:19;98956.19;;;-0.10;98.55
81181;BME280;70650;51.408;7.132;2024-01-15T00:46:45;98948.28;;;-0.07;98.21
81181;BME280;70650;51.408;7.132;2024-01-15T00:49:12;98949.97;;;-0.06;98.28
81181;BME280;70650;51.408;7.132;2024-01-15T00:51:38;98952.47;;;-0.03;98.18
81181;BME280;70650;51.408;7.132;2024-01-15T00:54:03;98948.97;;;-0.02;97.91
81181;BME280;70650;51.408;7.132;2024-01-15T00:56:29;98955.00;;;-0.02;98.22
81181;BME280;70650;51.408;7.132;2024-01-15T00:58:54;98946.56;;;-0.08;98.35
81181;BME280;70650;51.408;7.132;2024-01-15T01:01:20;98941.28;;;-0.05;98.56
81181;BME280;70650;51.408;7.132;2024-01-15T01:03:46;98954.44;;;-0.10;98.41
81181;BME280;70650;51.408;7.132;2024-01-15T01:06:11;98941.16;;;-0.02;98.37
81181;BME280;70650;51.408;7.132;2024-01-15T01:08:36;98934.38;;;-0.06;98.54
81181;BME280;70650;51.408;7.132;2024-01-15T01:11:02;98935.28;;;-0.07;98.36
81181;BME280;70650;51.408;7.132;2024-01-15T01:13:30;98947.19;;;0.00;98.29
81181;BME280;70650;51.408;7.132;2024-01-15T01:15:55;98942.88;;;-0.01;98.01
81181;BME280;70650;51.408;7.132;2024-01-15T01:18:20;98939.41;;;-0.02;98.29
81181;BME280;70650;51.408;7.132;2024-01-15T01:20:46;98934.28;;;-0.03;98.24
81181;BME280;70650;51.408;7.132;2024-01-15T01:23:11;98933.28;;;0.01;98.15
81181;BME280;70650;51.408;7.132;2024-01-15T01:25:37;98928.94;;;0.02;98.12
81181;BME280;70650;51.408;7.132;2024-01-15T01:28:02;98926.56;;;-0.05;98.02
81181;BME280;70650;51.408;7.132;2024-01-15T01:30:27;98936.13;;;-0.07;97.98
81181;BME280;70650;51.408;7.132;2024-01-15T01:32:53;98936.78;;;0.00;98.25
81181;BME280;70650;51.408;7.132;2024-01-15T01:35:18;98938.56;;;-0.02;98.38
81181;BME280;70650;51.408;7.132;2024-01-15T01:37:43;98930.78;;;-0.02;98.39
81181;BME280;70650;51.408;7.132;2024-01-15T01:40:10;98939.34;;;0.02;98.16
81181;BME280;70650;51.408;7.132;2024-01-15T01:42:35;98935.81;;;0.03;97.79
81181;BME280;70650;51.408;7.132;2024-01-15T01:45:01;98934.97;;;0.02;97.99
81181;BME280;70650;51.408;7.132;2024-01-15T01:47:26;98933.16;;;0.04;97.86
81181;BME280;70650;51.408;7.132;2024-01-15T01:49:52;98931.25;;;0.09;97.72
81181;BME280;70650;51.408;7.132;2024-01-15T01:52:19;98934.66;;;0.11;97.78
81181;BME280;70650;51.408;7.132;2024-01-15T01:54:44;98933.81;;;0.11;97.65
81181;BME280;70650;51.408;7.132;2024-01-15T01:57:10;98926.97;;;0.08;97.77
81181;BME280;70650;51.408;7.132;2024-01-15T01:59:37;98931.41;;;0.05;97.86
81181;BME280;70650;51.408;7.132;2024-01-15T02:02:04;98927.03;;;0.07;97.84
81181;BME280;70650;51.408;7.132;2024-01-15T02:04:31;98935.72;;;0.06;97.94
81181;BME280;70650;51.408;7.132;2024-01-15T02:06:57;98928.59;;;0.11;97.62
81181;BME280;70650;51.408;7.132;2024-01-15T02:09:22;98947.66;;;0.11;97.92
81181;BME280;70650;51.408;7.132;2024-01-15T02:11:47;98942.50;;;0.10;97.99
81181;BME280;70650;51.408;7.132;2024-01-15T02:14:13;98946.00;;;0.09;97.85
81181;BME280;70650;51.408;7.132;2024-01-15T02:16:39;98954.78;;;0.06;97.98
81181;BME280;70650;51.408;7.132;2024-01-15T02:19:04;98944.31;;;0.08;97.97
81181;BME280;70650;51.408;7.132;2024-01-15T02:21:31;98950.38;;;0.08;97.90
81181;BME280;70650;51.408;7.132;2024-01-15T02:23:57;98941.66;;;0.09;97.73
81181;BME280;70650;51.408;7.132;2024-01-15T02:26:22;98953.09;;;0.04;97.97
81181;BME280;70650;51.408;7.132;2024-01-15T02:28:48;98945.38;;;0.02;97.93
81181;BME280;70650;51.408;7.132;2024-01-15T02:31:14;98942.66;;;0.05;97.98
81181;BME280;70650;51.408;7.132;2024-01-15T02:33:39;98942.34;;;0.14;97.77
81181;BME280;70650;51.408;7.132;2024-01-15T02:36:05;98949.47;;;0.09;97.93
81181;BME280;70650;51.408;7.132;2024-01-15T02:38:30;98944.47;;;0.03;98.38
81181;BME280;70650;51.408;7.132;2024-01-15T02:40:56;98951.28;;;0.06;98.40
81181;BME280;70650;51.408;7.132;2024-01-15T02:43:21;98953.03;;;0.07;98.22
81181;BME280;70650;51.408;7.132;2024-01-15T02:45:46;98946.06;;;0.07;98.12
81181;BME280;70650;51.408;7.132;2024-01-15T02:48:12;98947.69;;;0.10;97.99
81181;BME280;70650;51.408;7.132;2024-01-15T02:50:38;98940.81;;;0.09;97.97
81181;BME280;70650;51.408;7.132;2024-01-15T02:53:04;98940.75;;;0.10;98.05
81181;BME280;70650;51.408;7.132;2024-01-15T02:55:30;98931.25;;;0.09;97.80
81181;BME280;70650;51.408;7.132;2024-01-15T02:57:57;98930.41;;;0.09;97.98
81181;BME280;70650;51.408;7.132;2024-01-15T03:00:22;98928.38;;;0.17;97.93
81181;BME280;70650;51.408;7.132;2024-01-15T03:02:49;98934.56;;;0.14;97.83
81181;BME280;70650;51.408;7.132;2024-01-15T03:05:15;98931.25;;;0.09;98.04
81181;BME280;70650;51.408;7.132;2024-01-15T03:07:41;98923.41;;;0.11;97.85
81181;BME280;70650;51.408;7.132;2024-01-15T03:10:06;98929.41;;;0.13;97.91
81181;BME280;70650;51.408;7.132;2024-01-15T03:12:32;98928.66;;;0.09;97.77
81181;BME280;70650;51.408;7.132;2024-01-15T03:14:57;98922.56;;;0.10;97.90
81181;BME280;70650;51.408;7.132;2024-01-15T03:17:22;98923.31;;;0.14;97.57
81181;BME280;70650;51.408;7.132;2024-01-15T03:19:48;98918.13;;;0.14;97.54
81181;BME280;70650;51.408;7.132;2024-01-15T03:22:15;98923.09;;;0.20;97.42
81181;BME280;70650;51.408;7.132;2024-01-15T03:24:40;98933.56;;;0.18;97.24
81181;BME280;70650;51.408;7.132;2024-01-15T03:27:06;98932.75;;;0.16;97.42
81181;BME280;70650;51.408;7.132;2024-01-15T03:29:31;98933.50;;;0.20;97.21
81181;BME280;70650;51.408;7.132;2024-01-15T03:31:56;98926.47;;;0.22;97.15
81181;BME280;70650;51.408;7.132;2024-01-15T03:34:22;98923.72;;;0.26;97.26
81181;BME280;70650;51.408;7.132;2024-01-15T03:36:47;98924.84;;;0.19;96.74
81181;BME280;70650;51.408;7.132;2024-01-15T03:39:13;98929.78;;;0.27;96.76
81181;BME280;70650;51.408;7.132;2024-01-15T03:41:38;98930.00;;;0.21;96.06
81181;BME280;70650;51.408;7.132;2024-01-15T03:44:03;98918.75;;;0.20;96.58
81181;BME280;70650;51.408;7.132;2024-01-15T03:46:28;98922.34;;;0.16;96.58
81181;BME280;70650;51.408;7.132;2024-01-15T03:48:54;98933.59;;;0.17;96.89
81181;BME280;70650;51.408;7.132;2024-01-15T03:51:19;98923.16;;;0.18;96.75
81181;BME280;70650;51.408;7.132;2024-01-15T03:53:45;98936.03;;;0.21;96.57
81181;BME280;70650;51.408;7.132;2024-01-15T03:56:11;98923.94;;;0.20;96.42
81181;BME280;70650;51.408;7.132;2024-01-15T03:58:36;98930.00;;;0.21;96.35
81181;BME280;70650;51.408;7.132;2024-01-15T04:01:01;98920.72;;;0.14;96.53
81181;BME280;70650;51.408;7.132;2024-01-15T04:03:27;98923.09;;;0.20;96.15
81181;BME280;70650;51.408;7.132;2024-01-15T04:05:52;98926.34;;;0.26;95.72
81181;BME280;70650;51.408;7.132;2024-01-15T04:08:18;98930.75;;;0.24;95.83
81181;BME280;70650;51.408;7.132;2024-01-15T04:10:43;98931.59;;;0.25;95.86
81181;BME280;70650;51.408;7.132;2024-01-15T04:13:09;98916.06;;;0.23;96.01
81181;BME280;70650;51.408;7.132;2024-01-15T04:15:34;98904.97;;;0.18;96.05
81181;BME280;70650;51.408;7.132;2024-01-15T04:18:00;98906.53;;;0.22;95.99
81181;BME280;70650;51.408;7.132;2024-01-15T04:20:26;98904.69;;;0.26;96.09
81181;BME280;70650;51.408;7.132;2024-01-15T04:22:52;98899.72;;;0.20;96.22
81181;BME280;70650;51.408;7.132;2024-01-15T04:25:17;98892.53;;;0.26;95.92
81181;BME280;70650;51.408;7.132;2024-01-15T04:27:42;98899.66;;;0.21;96.21
81181;BME280;70650;51.408;7.132;2024-01-15T04:30:08;98896.13;;;0.22;96.40
81181;BME280;70650;51.408;7.132;2024-01-15T04:32:33;98877.94;;;0.22;96.11
81181;BME280;70650;51.408;7.132;2024-01-15T04:34:59;98884.97;;;0.20;96.71
81181;BME280;70650;51.408;7.132;2024-01-15T04:37:24;98882.28;;;0.22;96.33
81181;BME280;70650;51.408;7.132;2024-01-15T04:39:49;98882.13;;;0.26;96.12
81181;BME280;70650;51.408;7.132;2024-01-15T04:42:18;98876.03;;;0.28;95.82
81181;BME280;70650;51.408;7.132;2024-01-15T04:44:43;98879.44;;;0.30;95.89
81181;BME280;70650;51.408;7.132;2024-01-15T04:47:08;98870.81;;;0.29;95.91
81181;BME280;70650;51.408;7.132;2024-01-15T04:49:34;98877.75;;;0.29;96.05
81181;BME280;70650;51.408;7.132;2024-01-15T04:51:59;98882.97;;;0.27;96.22
81181;BME280;70650;51.408;7.132;2024-01-15T04:54:24;98882.19;;;0.25;96.18
81181;BME280;70650;51.408;7.132;2024-01-15T04:56:49;98875.25;;;0.25;96.04
81181;BME280;70650;51.408;7.132;2024-01-15T04:59:15;98873.66;;;0.21;96.31
81181;BME280;70650;51.408;7.132;2024-01-15T05:01:40;98868.28;;;0.26;96.19
81181;BME280;70650;51.408;7.132;2024-01-15T05:04:05;98867.53;;;0.22;96.66
81181;BME280;70650;51.408;7.132;2024-01-15T05:06:31;98864.94;;;0.22;96.25
81181;BME280;70650;51.408;7.132;2024-01-15T05:08:56;98872.59;;;0.27;96.28
81181;BME280;70650;51.408;7.132;2024-01-15T05:11:21;98868.66;;;0.15;96.62
81181;BME280;70650;51.408;7.132;2024-01-15T05:13:47;98866.75;;;0.20;96.48
81181;BME280;70650;51.408;7.132;2024-01-15T05:16:12;98867.72;;;0.18;96.31
81181;BME280;70650;51.408;7.132;2024-01-15T05:18:37;98876.25;;;0.21;96.65
81181;BME280;70650;51.408;7.132;2024-01-15T05:21:03;98853.69;;;0.22;96.25
81181;BME280;70650;51.408;7.132;2024-01-15T05:23:31;98857.22;;;0.21;96.24
81181;BME280;70650;51.408;7.132;2024-01-15T05:25:56;98858.91;;;0.22;96.17
81181;BME280;70650;51.408;7.132;2024-01-15T05:28:22;98845.88;;;0.23;96.07
81181;BME280;70650;51.408;7.132;2024-01-15T05:30:47;98849.41;;;0.21;96.22
81181;BME280;70650;51.408;7.132;2024-01-15T05:33:12;98849.25;;;0.25;96.00
81181;BME280;70650;51.408;7.132;2024-01-15T05:35:38;98846.88;;;0.19;95.96
81181;BME280;70650;51.408;7.132;2024-01-15T05:38:03;98859.03;;;0.19;95.79
81181;BME280;70650;51.408;7.132;2024-01-15T05:40:28;98841.63;;;0.21;95.80
81181;BME280;70650;51.408;7.132;2024-01-15T05:42:54;98845.81;;;0.25;95.77
81181;BME280;70650;51.408;7.132;2024-01-15T05:45:19;98838.94;;;0.22;95.77
81181;BME280;70650;51.408;7.132;2024-01-15T05:47:44;98842.31;;;0.26;95.67
81181;BME280;70650;51.408;7.132;2024-01-15T05:50:10;98843.16;;;0.26;95.70
81181;BME280;70650;51.408;7.132;2024-01-15T05:52:35;98843.97;;;0.29;95.83
81181;BME280;70650;51.408;7.132;2024-01-15T05:55:01;98839.91;;;0.20;95.47
81181;BME280;70650;51.408;7.132;2024-01-15T05:57:26;98841.56;;;0.22;96.02
81181;BME280;70650;51.408;7.132;2024-01-15T05:59:51;98844.13;;;0.24;95.84
81181;BME280;70650;51.408;7.132;2024-01-15T06:02:17;98840.66;;;0.23;95.82
81181;BME280;70650;51.408;7.132;2024-01-15T06:04:42;98837.22;;;0.23;95.79
81181;BME280;70650;51.408;7.132;2024-01-15T06:07:07;98844.16;;;0.22;95.91
81181;BME280;70650;51.408;7.132;2024-01-15T06:09:33;98827.59;;;0.25;96.21
81181;BME280;70650;51.408;7.132;2024-01-15T06:11:58;98835.34;;;0.26;95.76
81181;BME280;70650;51.408;7.132;2024-01-15T06:14:24;98828.38;;;0.27;96.08
81181;BME280;70650;51.408;7.132;2024-01-15T06:16:49;98825.06;;;0.23;96.07
81181;BME280;70650;51.408;7.132;2024-01-15T06:19:15;98832.75;;;0.26;95.86
81181;BME280;70650;51.408;7.132;2024-01-15T06:21:40;98829.25;;;0.28;95.87
81181;BME280;70650;51.408;7.132;2024-01-15T06:24:05;98833.66;;;0.25;96.38
81181;BME280;70650;51.408;7.132;2024-01-15T06:26:31;98829.22;;;0.29;96.17
81181;BME280;70650;51.408;7.132;2024-01-15T06:28:56;98824.72;;;0.33;96.13
81181;BME280;70650;51.408;7.132;2024-01-15T06:31:21;98825.63;;;0.32;96.17
81181;BME280;70650;51.408;7.132;2024-01-15T06:33:48;98826.47;;;0.32;96.30
81181;BME280;70650;51.408;7.132;2024-01-15T06:36:14;98825.53;;;0.35;96.25
81181;BME280;70650;51.408;7.132;2024-01-15T06:38:39;98823.88;;;0.32;96.39
81181;BME280;70650;51.408;7.132;2024-01-15T06:41:05;98822.94;;;0.35;96.09
81181;BME280;70650;51.408;7.132;2024-01-15T06:43:31;98822.63;;;0.42;95.75
81181;BME280;70650;51.408;7.132;2024-01-15T06:45:57;98815.75;;;0.41;95.98
81181;BME280;70650;51.408;7.132;2024-01-15T06:48:22;98825.53;;;0.35;96.33
81181;BME280;70650;51.408;7.132;2024-01-15T06:50:47;98822.28;;;0.28;96.27
81181;BME280;70650;51.408;7.132;2024-01-15T06:53:13;98819.66;;;0.30;96.86
81181;BME280;70650;51.408;7.132;2024-01-15T06:55:38;98819.66;;;0.30;96.88
81181;BME280;70650;51.408;7.132;2024-01-15T06:58:05;98821.50;;;0.26;97.14
81181;BME280;70650;51.408;7.132;2024-01-15T07:00:31;98829.53;;;0.20;96.78
81181;BME280;70650;51.408;7.132;2024-01-15T07:02:57;98829.97;;;0.31;96.70
81181;BME280;70650;51.408;7.132;2024-01-15T07:05:24;98818.63;;;0.34;95.71
81181;BME280;70650;51.408;7.132;2024-01-15T07:07:49;98820.38;;;0.33;96.21
81181;BME280;70650;51.408;7.132;2024-01-15T07:10:15;98829.75;;;0.37;95.98
81181;BME280;70650;51.408;7.132;2024-01-15T07:12:42;98831.59;;;0.34;95.97
81181;BME280;70650;51.408;7.132;2024-01-15T07:15:07;98833.19;;;0.38;96.09
81181;BME280;70650;51.408;7.132;2024-01-15T07:17:33;98835.81;;;0.38;95.97
81181;BME280;70650;51.408;7.132;2024-01-15T07:19:59;98830.84;;;0.32;96.15
81181;BME280;70650;51.408;7.132;2024-01-15T07:22:25;98828.13;;;0.35;96.02
81181;BME280;70650;51.408;7.132;2024-01-15T07:24:50;98826.59;;;0.29;96.03
81181;BME280;70650;51.408;7.132;2024-01-15T07:27:15;98831.59;;;0.34;96.44
81181;BME280;70650;51.408;7.132;2024-01-15T07:29:41;98824.03;;;0.28;96.36
81181;BME280;70650;51.408;7.132;2024-01-15T07:32:07;98829.91;;;0.33;96.02
81181;BME280;70650;51.408;7.132;2024-01-15T07:34:33;98829.97;;;0.31;96.19
81181;BME280;70650;51.408;7.132;2024-01-15T07:36:59;98826.53;;;0.31;96.28
81181;BME280;70650;51.408;7.132;2024-01-15T07:39:25;98823.19;;;0.27;96.22
81181;BME280;70650;51.408;7.132;2024-01-15T07:41:51;98820.38;;;0.33;96.22
81181;BME280;70650;51.408;7.132;2024-01-15T07:44:16;98828.97;;;0.35;96.16
81181;BME280;70650;51.408;7.132;2024-01-15T07:46:48;98828.34;;;0.29;96.25
81181;BME280;70650;51.408;7.132;2024-01-15T07:49:13;98821.34;;;0.31;96.08
81181;BME280;70650;51.408;7.132;2024-01-15T07:51:39;98828.16;;;0.33;96.46
81181;BME280;70650;51.408;7.132;2024-01-15T07:54:24;98825.75;;;0.29;96.27
81181;BME280;70650;51.408;7.132;2024-01-15T07:56:54;98818.81;;;0.29;96.42
81181;BME280;70650;51.408;7.132;2024-01-15T07:59:20;98814.69;;;0.23;96.82
81181;BME280;70650;51.408;7.132;2024-01-15T08:01:45;98823.41;;;0.21;96.93
81181;BME280;70650;51.408;7.132;2024-01-15T08:04:10;98823.56;;;0.16;97.44
81181;BME280;70650;51.408;7.132;2024-01-15T08:06:38;98820.09;;;0.17;97.72
81181;BME280;70650;51.408;7.132;2024-01-15T08:09:03;98818.56;;;0.12;97.58
81181;BME280;70650;51.408;7.132;2024-01-15T08:11:29;98820.03;;;0.19;97.64
81181;BME280;70650;51.408;7.132;2024-01-15T08:13:55;98809.88;;;0.13;97.64
81181;BME280;70650;51.408;7.132;2024-01-15T08:16:20;98814.31;;;0.09;97.96
81181;BME280;70650;51.408;7.132;2024-01-15T08:18:46;98810.03;;;0.08;98.18
81181;BME280;70650;51.408;7.132;2024-01-15T08:21:12;98812.63;;;0.08;98.12
81181;BME280;70650;51.408;7.132;2024-01-15T08:23:37;98802.31;;;0.05;98.34
81181;BME280;70650;51.408;7.132;2024-01-15T08:26:02;98810.94;;;0.07;98.12
81181;BME280;70650;51.408;7.132;2024-01-15T08:28:28;98815.97;;;0.12;97.90
81181;BME280;70650;51.408;7.132;2024-01-15T08:30:53;98807.50;;;0.07;98.34
81181;BME280;70650;51.408;7.132;2024-01-15T08:33:18;98806.88;;;0.00;98.30
81181;BME280;70650;51.408;7.132;2024-01-15T08:35:44;98808.56;;;0.01;98.67
81181;BME280;70650;51.408;7.132;2024-01-15T08:38:09;98802.63;;;-0.03;98.65
81181;BME280;70650;51.408;7.132;2024-01-15T08:40:34;98807.94;;;-0.06;98.81
81181;BME280;70650;51.408;7.132;2024-01-15T08:43:00;98807.94;;;-0.06;98.92
81181;BME280;70650;51.408;7.132;2024-01-15T08:45:27;98801.69;;;0.00;98.99
81181;BME280;70650;51.408;7.132;2024-01-15T08:47:52;98811.25;;;-0.02;98.86
81181;BME280;70650;51.408;7.132;2024-01-15T08:50:17;98815.53;;;-0.01;98.83
81181;BME280;70650;51.408;7.132;2024-01-15T08:52:43;98822.56;;;-0.03;98.80
81181;BME280;70650;51.408;7.132;2024-01-15T08:55:08;98812.06;;;0.00;98.48
81181;BME280;70650;51.408;7.132;2024-01-15T08:57:33;98822.50;;;-0.02;98.60
81181;BME280;70650;51.408;7.132;2024-01-15T08:59:59;98827.84;;;-0.06;98.74
81181;BME280;70650;51.408;7.132;2024-01-15T09:02:25;98826.91;;;-0.04;98.95
81181;BME280;70650;51.408;7.132;2024-01-15T09:04:50;98826.00;;;-0.03;98.71
81181;BME280;70650;51.408;7.132;2024-01-15T09:07:16;98830.28;;;-0.02;98.76
81181;BME280;70650;51.408;7.132;2024-01-15T09:09:43;98823.41;;;-0.03;98.79
81181;BME280;70650;51.408;7.132;2024-01-15T09:12:09;98834.75;;;-0.05;98.80
81181;BME280;70650;51.408;7.132;2024-01-15T09:14:35;98834.06;;;-0.10;98.66
81181;BME280;70650;51.408;7.132;2024-01-15T09:17:00;98840.91;;;-0.08;99.04
81181;BME280;70650;51.408;7.132;2024-01-15T09:19:26;98840.13;;;-0.10;99.16
81181;BME280;70650;51.408;7.132;2024-01-15T09:21:51;98842.59;;;-0.07;99.07
81181;BME280;70650;51.408;7.132;2024-01-15T09:24:16;98855.75;;;-0.11;98.99
81181;BME280;70650;51.408;7.132;2024-01-15T09:26:42;98852.28;;;-0.12;99.02
81181;BME280;70650;51.408;7.132;2024-01-15T09:29:07;98844.72;;;-0.18;99.26
81181;BME280;70650;51.408;7.132;2024-01-15T09:31:32;98843.78;;;-0.15;99.35
81181;BME280;70650;51.408;7.132;2024-01-15T09:33:58;98851.63;;;-0.17;99.21
81181;BME280;70650;51.408;7.132;2024-01-15T09:36:25;98851.56;;;-0.15;99.31
81181;BME280;70650;51.408;7.132;2024-01-15T09:38:51;98848.28;;;-0.20;99.36
81181;BME280;70650;51.408;7.132;2024-01-15T09:41:17;98849.97;;;-0.19;99.34
81181;BME280;70650;51.408;7.132;2024-01-15T09:43:43;98854.16;;;-0.15;99.45
81181;BME280;70650;51.408;7.132;2024-01-15T09:46:08;98841.47;;;-0.24;99.45
81181;BME280;70650;51.408;7.132;2024-01-15T09:48:34;98859.44;;;-0.18;99.42
81181;BME280;70650;51.408;7.132;2024-01-15T09:51:01;98852.41;;;-0.15;99.46
81181;BME280;70650;51.408;7.132;2024-01-15T09:53:26;98848.16;;;-0.17;99.06
81181;BME280;70650;51.408;7.132;2024-01-15T09:55:53;98864.50;;;-0.14;99.00
81181;BME280;70650;51.408;7.132;2024-01-15T09:58:18;98854.88;;;-0.12;98.72
81181;BME280;70650;51.408;7.132;2024-01-15T10:00:44;98859.09;;;-0.08;98.41
81181;BME280;70650;51.408;7.132;2024-01-15T10:03:09;98847.75;;;-0.05;97.88
81181;BME280;70650;51.408;7.132;2024-01-15T10:05:37;98864.75;;;0.04;97.58
81181;BME280;70650;51.408;7.132;2024-01-15T10:08:04;98868.31;;;0.01;97.61
81181;BME280;70650;51.408;7.132;2024-01-15T10:10:31;98860.63;;;-0.02;97.65
81181;BME280;70650;51.408;7.132;2024-01-15T10:12:58;98856.44;;;-0.06;97.94
81181;BME280;70650;51.408;7.132;2024-01-15T10:15:29;98860.31;;;0.07;97.74
81181;BME280;70650;51.408;7.132;2024-01-15T10:17:55;98851.03;;;0.00;97.51
81181;BME280;70650;51.408;7.132;2024-01-15T10:20:21;98849.06;;;0.07;97.66
81181;BME280;70650;51.408;7.132;2024-01-15T10:22:50;98847.41;;;0.04;97.27
81181;BME280;70650;51.408;7.132;2024-01-15T10:25:15;98853.44;;;0.06;97.25
81181;BME280;70650;51.408;7.132;2024-01-15T10:27:41;98843.69;;;0.11;97.18
81181;BME280;70650;51.408;7.132;2024-01-15T10:30:11;98844.03;;;0.02;97.66
81181;BME280;70650;51.408;7.132;2024-01-15T10:32:39;98843.13;;;0.03;98.08
81181;BME280;70650;51.408;7.132;2024-01-15T10:35:07;98840.69;;;-0.02;97.95
81181;BME280;70650;51.408;7.132;2024-01-15T10:37:33;98844.13;;;-0.01;97.72
81181;BME280;70650;51.408;7.132;2024-01-15T10:40:01;98829.00;;;0.10;97.75
81181;BME280;70650;51.408;7.132;2024-01-15T10:42:28;98830.13;;;0.03;96.92
81181;BME280;70650;51.408;7.132;2024-01-15T10:44:53;98837.47;;;0.15;97.21
81181;BME280;70650;51.408;7.132;2024-01-15T10:47:19;98841.31;;;0.05;97.25
81181;BME280;70650;51.408;7.132;2024-01-15T10:49:47;98838.78;;;0.04;96.99
81181;BME280;70650;51.408;7.132;2024-01-15T10:52:12;98836.69;;;0.13;96.70
81181;BME280;70650;51.408;7.132;2024-01-15T10:54:38;98845.81;;;0.25;96.98
81181;BME280;70650;51.408;7.132;2024-01-15T10:57:04;98845.06;;;0.21;96.58
81181;BME280;70650;51.408;7.132;2024-01-15T10:59:31;98849.63;;;0.15;96.41
81181;BME280;70650;51.408;7.132;2024-01-15T11:01:58;98834.09;;;0.13;96.42
81181;BME280;70650;51.408;7.132;2024-01-15T11:04:25;98850.47;;;0.15;95.80
81181;BME280;70650;51.408;7.132;2024-01-15T11:06:53;98858.91;;;0.22;95.94
81181;BME280;70650;51.408;7.132;2024-01-15T11:09:20;98852.13;;;0.18;95.99
81181;BME280;70650;51.408;7.132;2024-01-15T11:11:46;98846.94;;;0.18;95.79
81181;BME280;70650;51.408;7.132;2024-01-15T11:14:48;98847.72;;;0.20;95.89
81181;BME280;70650;51.408;7.132;2024-01-15T11:17:15;98851.56;;;0.33;95.46
81181;BME280;70650;51.408;7.132;2024-01-15T11:19:48;98852.84;;;0.21;95.45
81181;BME280;70650;51.408;7.132;2024-01-15T11:22:47;98839.09;;;0.19;95.57
81181;BME280;70650;51.408;7.132;2024-01-15T11:25:15;98845.69;;;0.28;95.91
81181;BME280;70650;51.408;7.132;2024-01-15T11:27:50;98848.63;;;0.19;95.85
81181;BME280;70650;51.408;7.132;2024-01-15T11:30:17;98844.91;;;0.26;95.85
81181;BME280;70650;51.408;7.132;2024-01-15T11:32:44;98850.22;;;0.23;95.73
81181;BME280;70650;51.408;7.132;2024-01-15T11:35:12;98844.34;;;0.18;95.46
81181;BME280;70650;51.408;7.132;2024-01-15T11:40:36;98844.06;;;0.25;95.60
81181;BME280;70650;51.408;7.132;2024-01-15T11:43:04;98841.22;;;0.32;95.95
81181;BME280;70650;51.408;7.132;2024-01-15T11:45:30;98842.88;;;0.34;95.80
81181;BME280;70650;51.408;7.132;2024-01-15T11:48:14;98844.91;;;0.26;95.95
81181;BME280;70650;51.408;7.132;2024-01-15T11:50:44;98852.47;;;0.32;96.08
81181;BME280;70650;51.408;7.132;2024-01-15T11:53:17;98850.00;;;0.29;96.22
81181;BME280;70650;51.408;7.132;2024-01-15T11:55:44;98840.09;;;0.15;96.32
81181;BME280;70650;51.408;7.132;2024-01-15T11:58:11;98836.41;;;0.21;96.38
81181;BME280;70650;51.408;7.132;2024-01-15T12:00:51;98831.16;;;0.22;96.42
81181;BME280;70650;51.408;7.132;2024-01-15T12:03:20;98837.16;;;0.24;96.59
81181;BME280;70650;51.408;7.132;2024-01-15T12:05:46;98834.34;;;0.31;96.61
81181;BME280;70650;51.408;7.132;2024-01-15T12:08:12;98834.41;;;0.29;96.08
81181;BME280;70650;51.408;7.132;2024-01-15T12:10:41;98839.38;;;0.35;96.15
81181;BME280;70650;51.408;7.132;2024-01-15T12:13:12;98830.44;;;0.42;96.18
81181;BME280;70650;51.408;7.132;2024-01-15T12:15:38;98832.75;;;0.26;95.93
81181;BME280;70650;51.408;7.132;2024-01-15T12:18:07;98849.25;;;0.25;96.04
81181;BME280;70650;51.408;7.132;2024-01-15T12:20:33;98845.75;;;0.26;96.37
81181;BME280;70650;51.408;7.132;2024-01-15T12:22:59;98845.88;;;0.23;96.47
81181;BME280;70650;51.408;7.132;2024-01-15T12:25:25;98845.59;;;0.31;96.61
81181;BME280;70650;51.408;7.132;2024-01-15T12:27:53;98843.91;;;0.30;96.11
81181;BME280;70650;51.408;7.132;2024-01-15T12:30:19;98840.91;;;0.41;95.68
81181;BME280;70650;51.408;7.132;2024-01-15T12:32:45;98841.59;;;0.46;95.67
81181;BME280;70650;51.408;7.132;2024-01-15T12:35:12;98845.56;;;0.55;95.49
81181;BME280;70650;51.408;7.132;2024-01-15T12:37:42;98837.09;;;0.49;95.35
81181;BME280;70650;51.408;7.132;2024-01-15T12:40:09;98841.97;;;0.59;94.90
81181;BME280;70650;51.408;7.132;2024-01-15T12:42:39;98839.50;;;0.77;94.52
81181;BME280;70650;51.408;7.132;2024-01-15T12:45:06;98850.81;;;0.76;94.23
81181;BME280;70650;51.408;7.132;2024-01-15T12:47:36;98847.69;;;0.68;94.20
81181;BME280;70650;51.408;7.132;2024-01-15T12:50:01;98843.56;;;0.63;94.41
81181;BME280;70650;51.408;7.132;2024-01-15T12:52:27;98859.59;;;0.50;94.24
81181;BME280;70650;51.408;7.132;2024-01-15T12:54:54;98858.13;;;0.43;94.80
81181;BME280;70650;51.408;7.132;2024-01-15T12:57:20;98854.75;;;0.41;95.55
81181;BME280;70650;51.408;7.132;2024-01-15T12:59:45;98860.34;;;0.31;96.05
81181;BME280;70650;51.408;7.132;2024-01-15T13:02:11;98857.34;;;0.18;96.66
81181;BME280;70650;51.408;7.132;2024-01-15T13:04:37;98850.25;;;0.21;96.84